Time;durP1;ratioP1;P1;durP2;ratioP2;P2;SDS_P1;SDS_P2;PMS_P1;PMS_P2;Temp;Humidity;BMP_temperature;BMP_pressure;BME280_temperature;BME280_humidity;BME280_pressure;Samples;Min_cycle;Max_cycle;Signal;HPM_P1;HPM_P2
2022/06/05 00:00:10;;;;;;;6.57;2.70;;;;;;;13.40;100.00;102039.56;5153548;27;20042;-80
2022/06/05 00:02:42;;;;;;;5.72;2.30;;;;;;;13.79;100.00;102054.19;5138628;27;20476;-81
2022/06/05 00:05:20;;;;;;;6.88;3.00;;;;;;;13.72;100.00;102029.81;5132596;27;20130;-81
2022/06/05 00:08:10;;;;;;;6.60;2.42;;;;;;;13.71;100.00;102043.06;5136503;27;20043;-81
2022/06/05 00:10:47;;;;;;;10.13;2.90;;;;;;;13.64;100.00;102042.38;5150429;27;20047;-81
2022/06/05 00:13:20;;;;;;;6.88;2.50;;;;;;;13.74;100.00;102054.38;5142428;27;20385;-81
2022/06/05 00:15:47;;;;;;;6.60;2.80;;;;;;;13.40;100.00;102039.56;5138660;27;20047;-81
2022/06/05 00:18:15;;;;;;;9.13;2.80;;;;;;;13.13;100.00;102045.56;5143344;27;20134;-80
2022/06/05 00:20:45;;;;;;;7.32;2.80;;;;;;;12.82;100.00;102031.47;5131435;27;20412;-80
2022/06/05 00:23:12;;;;;;;7.93;2.70;;;;;;;12.97;100.00;102032.81;5140217;27;20047;-80
2022/06/05 00:26:07;;;;;;;6.97;2.53;;;;;;;13.04;100.00;102033.53;5151669;27;20396;-81
2022/06/05 00:28:52;;;;;;;7.97;3.00;;;;;;;13.03;100.00;102035.28;5130506;27;20112;-81
2022/06/05 00:31:36;;;;;;;8.35;2.60;;;;;;;13.01;100.00;102025.72;5144748;27;20486;-80
2022/06/05 00:34:04;;;;;;;7.20;3.08;;;;;;;13.01;100.00;102013.41;5134369;27;20050;-80
2022/06/05 00:49:59;;;;;;;6.88;2.50;;;;;;;13.05;100.00;102007.19;5089603;27;20864;-81
2022/06/05 00:52:30;;;;;;;6.53;2.80;;;;;;;12.97;100.00;102006.53;5089353;28;20162;-79
2022/06/05 00:54:57;;;;;;;6.90;2.88;;;;;;;12.98;100.00;101987.22;5089690;28;20051;-79
2022/06/05 00:57:28;;;;;;;6.65;2.50;;;;;;;12.89;100.00;102005.84;5087654;28;20062;-80
2022/06/05 00:59:57;;;;;;;7.50;2.60;;;;;;;12.93;100.00;101996.16;5076545;28;20056;-79
2022/06/05 01:02:24;;;;;;;6.65;2.47;;;;;;;12.70;100.00;101972.19;5081776;28;20047;-79
2022/06/05 01:04:51;;;;;;;7.22;2.63;;;;;;;12.87;100.00;101984.00;5076077;28;20139;-80
2022/06/05 01:07:20;;;;;;;6.35;2.40;;;;;;;12.81;100.00;101987.69;5083956;28;20051;-79
2022/06/05 01:09:49;;;;;;;6.25;2.60;;;;;;;12.49;100.00;101986.75;5074659;28;20044;-80
2022/06/05 01:12:49;;;;;;;8.38;2.90;;;;;;;12.26;100.00;101981.22;5082205;28;20048;-79
2022/06/05 01:15:31;;;;;;;7.03;3.00;;;;;;;12.24;100.00;101990.91;5081026;28;20049;-79
2022/06/05 01:18:42;;;;;;;5.65;2.28;;;;;;;12.61;100.00;101982.97;5081848;28;20071;-80
2022/06/05 01:21:35;;;;;;;6.13;2.40;;;;;;;12.62;100.00;101976.78;5075638;28;20048;-80
2022/06/05 01:24:09;;;;;;;6.30;2.70;;;;;;;12.76;100.00;101978.19;5074064;28;20045;-79
2022/06/05 01:26:42;;;;;;;6.68;2.80;;;;;;;12.60;100.00;101964.59;5070922;28;20055;-79
2022/06/05 01:29:17;;;;;;;8.63;2.55;;;;;;;12.58;100.00;101966.41;5097762;28;20044;-79
2022/06/05 01:32:34;;;;;;;6.78;3.00;;;;;;;12.44;100.00;101966.78;5068508;28;20049;-80
2022/06/05 01:35:14;;;;;;;6.03;2.45;;;;;;;12.36;100.00;101969.59;5047912;28;20439;-80
2022/06/05 01:37:46;;;;;;;7.10;2.70;;;;;;;12.33;100.00;101954.78;5061656;28;20051;-80
2022/06/05 01:40:20;;;;;;;6.03;2.60;;;;;;;12.25;100.00;101948.88;5066707;28;20055;-80
2022/06/05 01:42:57;;;;;;;8.40;3.28;;;;;;;12.10;100.00;101950.09;5078131;28;20153;-79
2022/06/05 01:45:34;;;;;;;6.50;2.70;;;;;;;11.90;100.00;101945.34;5058535;28;20059;-79
2022/06/05 01:48:05;;;;;;;6.70;3.08;;;;;;;11.74;100.00;101960.53;5066179;28;20599;-79
2022/06/05 01:50:44;;;;;;;7.30;3.25;;;;;;;11.73;100.00;101964.06;5062849;28;20391;-79
2022/06/05 01:53:26;;;;;;;6.13;2.50;;;;;;;12.00;100.00;101964.34;5053166;28;20044;-79
2022/06/05 01:56:05;;;;;;;6.90;2.65;;;;;;;12.24;100.00;101948.91;5052831;28;20053;-80
2022/06/05 01:58:50;;;;;;;7.10;2.88;;;;;;;12.32;100.00;101960.94;5053001;28;20045;-79
2022/06/05 02:01:22;;;;;;;6.05;2.33;;;;;;;12.18;100.00;101931.50;5053472;28;20467;-80
2022/06/05 02:04:04;;;;;;;6.82;2.50;;;;;;;12.25;100.00;101934.84;5053329;28;20064;-79
2022/06/05 02:06:41;;;;;;;4.95;2.08;;;;;;;12.34;100.00;101934.63;5052773;28;20049;-78
2022/06/05 02:09:18;;;;;;;7.35;2.70;;;;;;;12.17;100.00;101923.69;5053085;28;20044;-78
2022/06/05 02:11:46;;;;;;;8.25;2.88;;;;;;;11.84;100.00;101931.47;5053045;28;20055;-79
2022/06/05 02:14:13;;;;;;;5.88;2.40;;;;;;;11.74;100.00;101947.44;5052873;28;20049;-79
2022/06/05 02:16:42;;;;;;;6.28;2.20;;;;;;;12.08;100.00;101941.41;5052700;28;20067;-79
2022/06/05 02:19:14;;;;;;;6.25;2.30;;;;;;;12.00;100.00;101918.88;5052898;28;20179;-79
2022/06/05 02:21:41;;;;;;;9.07;2.80;;;;;;;11.91;100.00;101918.19;5052371;28;20060;-80
2022/06/05 02:24:11;;;;;;;5.88;2.63;;;;;;;11.81;100.00;101932.41;5054289;28;20489;-79
2022/06/05 02:26:39;;;;;;;6.78;2.55;;;;;;;11.81;100.00;101949.91;5052822;28;20437;-79
2022/06/05 02:29:32;;;;;;;6.05;2.50;;;;;;;11.97;100.00;101940.81;5052605;28;20043;-79
2022/06/05 02:32:14;;;;;;;6.85;2.90;;;;;;;12.03;100.00;101934.53;5051465;28;20906;-79
2022/06/05 02:35:23;;;;;;;6.97;2.95;;;;;;;11.55;100.00;101933.84;5052768;28;20049;-79
2022/06/05 02:38:08;;;;;;;7.35;2.70;;;;;;;11.38;100.00;101936.88;5042030;28;20045;-79
2022/06/05 02:40:51;;;;;;;6.78;2.47;;;;;;;11.32;100.00;101902.91;5049256;28;20045;-79
2022/06/05 02:43:24;;;;;;;6.75;2.58;;;;;;;11.61;100.00;101922.34;5054147;28;20061;-80
2022/06/05 02:45:58;;;;;;;;;;;;;;;11.93;100.00;101907.66;5049217;28;20484;-80
2022/06/05 02:48:41;;;;;;;5.63;2.43;;;;;;;11.66;100.00;101917.88;5042953;28;19924;-80
2022/06/05 02:51:13;;;;;;;;;;;;;;;11.69;100.00;101914.34;5052438;28;20052;-80
2022/06/05 02:53:53;;;;;;;6.53;2.78;;;;;;;11.56;100.00;101906.75;5052421;28;19921;-80
2022/06/05 02:56:21;;;;;;;6.13;2.53;;;;;;;11.69;100.00;101909.09;5052152;28;20052;-80
2022/06/05 02:58:52;;;;;;;6.35;2.47;;;;;;;11.34;100.00;101889.75;5052589;28;20055;-80
2022/06/05 03:04:07;;;;;;;8.88;3.10;;;;;;;10.80;100.00;101917.97;5053285;28;20049;-80
2022/06/05 03:06:37;;;;;;;6.95;2.85;;;;;;;10.69;100.00;101904.19;5038206;28;20634;-80
2022/06/05 03:09:05;;;;;;;7.85;3.17;;;;;;;10.71;100.00;101904.16;5052910;28;20045;-80
2022/06/05 03:11:38;;;;;;;9.82;3.92;;;;;;;10.90;100.00;101900.28;5051784;28;20053;-79
2022/06/05 03:14:05;;;;;;;7.95;3.25;;;;;;;10.52;100.00;101895.81;5051590;28;20103;-80
2022/06/05 03:16:34;;;;;;;7.00;3.13;;;;;;;10.91;100.00;101904.66;5051340;28;20059;-80
2022/06/05 03:19:01;;;;;;;7.57;3.20;;;;;;;10.43;100.00;101905.56;5051684;28;20103;-80
2022/06/05 03:21:33;;;;;;;6.90;3.05;;;;;;;10.81;100.00;101922.28;5053084;28;20045;-80
2022/06/05 03:24:00;;;;;;;7.68;3.00;;;;;;;11.09;100.00;101908.66;5053553;28;20059;-79
2022/06/05 03:26:27;;;;;;;7.50;4.15;;;;;;;11.22;100.00;101898.75;5051698;28;20059;-80
2022/06/05 03:28:54;;;;;;;8.18;3.00;;;;;;;11.33;100.00;101893.25;5052774;28;20041;-80
2022/06/05 03:31:20;;;;;;;10.77;3.10;;;;;;;11.41;100.00;101914.94;5051374;28;20045;-80
2022/06/05 03:33:47;;;;;;;7.05;2.65;;;;;;;11.15;100.00;101891.91;5045182;28;20459;-80
2022/06/05 03:36:16;;;;;;;7.60;2.88;;;;;;;10.75;100.00;101905.84;5052436;28;20098;-80
2022/06/05 03:38:45;;;;;;;6.93;2.65;;;;;;;10.54;100.00;101884.41;5050372;28;20045;-80
2022/06/05 03:41:15;;;;;;;7.63;3.15;;;;;;;10.70;100.00;101898.06;5059002;28;20055;-80
2022/06/05 03:43:42;;;;;;;9.70;3.70;;;;;;;10.58;100.00;101898.31;5057224;28;20057;-80
2022/06/05 03:46:13;;;;;;;7.90;3.45;;;;;;;10.51;100.00;101900.19;5051730;28;20471;-80
2022/06/05 03:48:40;;;;;;;8.23;3.55;;;;;;;10.32;100.00;101911.88;5051379;28;20048;-80
2022/06/05 03:51:10;;;;;;;7.70;2.88;;;;;;;10.45;100.00;101929.97;5051218;28;20139;-80
2022/06/05 03:53:38;;;;;;;9.13;4.57;;;;;;;9.50;100.00;101936.69;5051007;28;20720;-80
2022/06/05 03:56:15;;;;;;;11.07;5.15;;;;;;;9.28;100.00;101936.97;5050673;28;20051;-80
2022/06/05 03:58:42;;;;;;;9.60;4.63;;;;;;;9.39;100.00;101938.59;5050807;28;20052;-80
2022/06/05 04:01:11;;;;;;;8.60;4.22;;;;;;;9.72;100.00;101908.47;5051282;28;20053;-80
2022/06/05 04:03:38;;;;;;;9.73;4.75;;;;;;;9.91;100.00;101909.03;5050692;28;20064;-79
2022/06/05 04:06:16;;;;;;;6.97;3.15;;;;;;;10.20;100.00;101921.66;5051229;28;20059;-80
2022/06/05 04:08:43;;;;;;;7.57;3.55;;;;;;;10.62;100.00;101920.91;5050651;28;20390;-80
2022/06/05 04:11:16;;;;;;;9.02;3.92;;;;;;;11.49;100.00;101922.63;5050767;28;20157;-79
2022/06/05 04:13:44;;;;;;;8.77;3.95;;;;;;;12.66;100.00;101890.84;5051366;28;20048;-80
2022/06/05 04:16:23;;;;;;;9.75;4.15;;;;;;;13.32;100.00;101891.59;5050611;28;20055;-80
2022/06/05 04:18:51;;;;;;;8.40;3.42;;;;;;;14.03;100.00;101884.91;5050903;28;20364;-80
2022/06/05 04:21:21;;;;;;;9.98;3.78;;;;;;;14.55;100.00;101894.56;5050889;28;20045;-80
2022/06/05 04:23:49;;;;;;;6.82;2.58;;;;;;;15.19;100.00;101892.22;5050820;28;20570;-79
2022/06/05 04:26:18;;;;;;;8.43;3.35;;;;;;;15.41;97.34;101909.84;5050465;28;20048;-80
2022/06/05 04:28:45;;;;;;;7.22;2.92;;;;;;;15.11;92.91;101909.25;5049842;28;20041;-79
2022/06/05 04:31:19;;;;;;;9.48;3.38;;;;;;;15.51;95.16;101924.41;5050224;28;20092;-80
2022/06/05 04:33:46;;;;;;;;;;;;;;;16.52;93.21;101915.88;5050650;28;20132;-79
2022/06/05 04:36:13;;;;;;;7.93;3.17;;;;;;;16.00;86.05;101908.38;5051894;28;19920;-80
2022/06/05 04:38:40;;;;;;;8.02;2.70;;;;;;;16.31;83.94;101907.09;5050402;28;20128;-80
2022/06/05 04:41:08;;;;;;;7.07;2.60;;;;;;;17.01;81.67;101916.31;5050513;28;20053;-80
2022/06/05 04:43:34;;;;;;;6.78;2.75;;;;;;;17.18;78.28;101897.03;5050107;28;20053;-80
2022/06/05 04:46:02;;;;;;;7.03;2.55;;;;;;;16.79;77.98;101910.28;5049900;28;20044;-80
2022/06/05 04:48:29;;;;;;;5.50;2.17;;;;;;;17.59;73.58;101917.16;5051032;28;20103;-81
2022/06/05 04:50:55;;;;;;;5.93;2.53;;;;;;;17.77;71.55;101907.47;5051049;28;20101;-80
2022/06/05 04:53:22;;;;;;;5.80;2.40;;;;;;;15.52;77.72;101926.09;5051100;28;20365;-80
2022/06/05 04:55:49;;;;;;;6.63;2.92;;;;;;;13.69;91.73;101919.41;5050219;28;20053;-80
2022/06/05 04:58:16;;;;;;;6.35;2.42;;;;;;;13.18;100.00;101920.06;5050259;28;20078;-80
2022/06/05 05:00:42;;;;;;;6.07;2.30;;;;;;;12.73;100.00;101914.31;5050464;28;20797;-80
2022/06/05 05:03:09;;;;;;;7.20;2.45;;;;;;;12.22;100.00;101895.56;5051940;28;20478;-80
2022/06/05 05:05:37;;;;;;;8.38;3.72;;;;;;;11.70;100.00;101924.75;5050082;28;20131;-80
2022/06/05 05:08:04;;;;;;;8.18;3.40;;;;;;;11.85;100.00;101926.19;5050605;28;20041;-80
2022/06/05 05:10:31;;;;;;;7.72;2.90;;;;;;;11.75;100.00;101907.16;5049935;28;20053;-80
2022/06/05 05:12:58;;;;;;;7.65;3.05;;;;;;;12.02;100.00;101915.28;5050120;28;20387;-80
2022/06/05 05:15:25;;;;;;;9.07;3.13;;;;;;;12.08;100.00;101911.66;5050316;28;20053;-80
2022/06/05 05:17:51;;;;;;;8.60;3.03;;;;;;;12.65;100.00;101910.16;5051317;28;20056;-80
2022/06/05 05:20:19;;;;;;;9.05;3.47;;;;;;;12.66;100.00;101918.00;5050040;28;20406;-79
2022/06/05 05:22:46;;;;;;;9.38;3.13;;;;;;;12.66;100.00;101907.50;5049968;28;20049;-80
2022/06/05 05:25:13;;;;;;;8.50;3.00;;;;;;;14.04;100.00;101912.09;5052186;28;20045;-80
2022/06/05 05:27:40;;;;;;;8.10;2.90;;;;;;;14.19;100.00;101885.25;5053851;28;20056;-80
2022/06/05 05:30:08;;;;;;;7.80;2.97;;;;;;;14.59;100.00;101907.63;5053036;28;20059;-80
2022/06/05 05:32:34;;;;;;;7.25;3.03;;;;;;;14.53;100.00;101896.41;5055469;28;20402;-80
2022/06/05 05:35:02;;;;;;;7.80;2.72;;;;;;;14.47;100.00;101894.00;5053887;28;20067;-80
2022/06/05 05:37:28;;;;;;;10.30;3.10;;;;;;;14.34;100.00;101906.72;5054727;28;20056;-80
2022/06/05 05:42:40;;;;;;;9.13;3.17;;;;;;;15.17;100.00;101901.09;5054310;28;20051;-81
2022/06/05 05:45:08;;;;;;;5.70;2.30;;;;;;;15.17;99.50;101904.59;5054778;28;20053;-81
2022/06/05 05:47:35;;;;;;;8.20;3.17;;;;;;;14.76;100.00;101904.34;5053096;28;20071;-81
2022/06/05 05:50:06;;;;;;;7.03;2.42;;;;;;;15.38;100.00;101908.16;5053774;28;20038;-81
2022/06/05 05:52:33;;;;;;;8.45;3.42;;;;;;;15.41;95.68;101909.00;5053264;28;20045;-80
2022/06/05 05:55:01;;;;;;;8.98;3.75;;;;;;;14.90;100.00;101898.56;5055058;28;20484;-81
2022/06/05 05:57:34;;;;;;;8.00;3.80;;;;;;;14.79;100.00;101900.75;5053031;28;20049;-80
2022/06/05 06:00:01;;;;;;;7.93;3.30;;;;;;;14.97;100.00;101907.13;5052123;28;20052;-81
2022/06/05 06:02:28;;;;;;;6.70;2.50;;;;;;;15.81;98.09;101879.25;5052588;28;20139;-80
2022/06/05 06:04:55;;;;;;;9.48;2.88;;;;;;;16.69;87.66;101896.59;5051889;28;20056;-81
2022/06/05 06:07:21;;;;;;;7.28;2.97;;;;;;;15.74;95.32;101906.75;5045626;28;20049;-80
2022/06/05 06:09:48;;;;;;;9.13;3.30;;;;;;;15.71;94.85;101906.91;5052608;28;20394;-80
2022/06/05 06:12:23;;;;;;;6.88;2.65;;;;;;;16.62;93.40;101913.66;5052679;28;20115;-80
2022/06/05 06:14:51;;;;;;;6.97;2.80;;;;;;;15.78;98.44;101912.84;5038260;28;20075;-80
2022/06/05 06:17:18;;;;;;;7.35;3.10;;;;;;;16.70;88.72;101925.63;5052176;28;20535;-80
2022/06/05 06:19:45;;;;;;;9.45;4.72;;;;;;;15.31;99.60;101911.97;5052414;28;20049;-80
2022/06/05 06:22:12;;;;;;;8.50;3.70;;;;;;;15.02;100.00;101923.66;5053384;28;20053;-80
2022/06/05 06:24:39;;;;;;;8.02;3.05;;;;;;;15.56;100.00;101924.19;5052649;28;20057;-80
2022/06/05 06:27:05;;;;;;;8.40;3.20;;;;;;;16.01;98.43;101918.03;5052510;28;20059;-80
2022/06/05 06:29:32;;;;;;;8.45;3.08;;;;;;;16.38;97.05;101918.22;5051889;28;20044;-80
2022/06/05 06:31:59;;;;;;;6.55;2.60;;;;;;;17.48;86.98;101917.69;5052450;28;20041;-81
2022/06/05 06:34:26;;;;;;;7.05;2.92;;;;;;;16.95;89.92;101919.25;5052751;28;20501;-80
2022/06/05 06:36:53;;;;;;;6.32;2.42;;;;;;;16.84;94.15;101918.91;5053216;28;21095;-80
2022/06/05 06:39:20;;;;;;;6.40;2.00;;;;;;;18.92;82.89;101912.16;5051848;28;20049;-81
2022/06/05 06:41:48;;;;;;;6.10;2.38;;;;;;;19.65;78.33;101921.44;5052926;28;20068;-81
2022/06/05 06:44:16;;;;;;;8.27;3.30;;;;;;;18.12;80.20;101908.38;5051932;28;20049;-81
2022/06/05 06:46:43;;;;;;;8.95;4.18;;;;;;;17.59;80.09;101919.81;5065292;28;20053;-81
2022/06/05 06:49:10;;;;;;;7.60;3.58;;;;;;;18.34;77.08;101909.91;5049340;28;20067;-81
2022/06/05 06:51:37;;;;;;;6.75;2.67;;;;;;;18.89;74.63;101901.75;5052488;28;20049;-81
2022/06/05 06:54:03;;;;;;;7.30;2.97;;;;;;;19.44;73.72;101891.63;5052291;28;20052;-81
2022/06/05 06:56:33;;;;;;;7.47;3.10;;;;;;;18.29;75.74;101896.03;5051620;28;20053;-81
2022/06/05 06:59:01;;;;;;;8.38;3.40;;;;;;;18.83;72.85;101911.81;5051703;28;20382;-80
2022/06/05 07:01:28;;;;;;;7.05;2.42;;;;;;;20.23;68.12;101866.69;5053192;28;20048;-81
2022/06/05 07:03:55;;;;;;;8.05;3.47;;;;;;;20.32;66.56;101892.72;5052203;28;20382;-81
2022/06/05 07:06:22;;;;;;;8.75;4.53;;;;;;;18.02;75.33;101908.00;5046834;28;20087;-81
2022/06/05 07:08:49;;;;;;;7.90;3.30;;;;;;;20.09;70.82;101899.44;5043140;28;20057;-81
2022/06/05 07:11:18;;;;;;;7.72;3.97;;;;;;;19.89;70.33;101897.94;5051773;28;20041;-81
2022/06/05 07:13:48;;;;;;;10.55;6.05;;;;;;;19.83;74.70;101888.53;5051884;28;20053;-81
2022/06/05 07:16:16;;;;;;;8.57;4.13;;;;;;;20.56;68.17;101884.22;5050167;28;20049;-81
2022/06/05 07:18:43;;;;;;;8.93;4.60;;;;;;;20.51;70.98;101889.81;5051093;28;20132;-81
2022/06/05 07:21:12;;;;;;;11.85;6.55;;;;;;;20.49;70.12;101884.56;5051532;28;20069;-81
2022/06/05 07:23:40;;;;;;;10.95;5.65;;;;;;;20.25;69.79;101891.38;5050985;28;20055;-81
2022/06/05 07:26:11;;;;;;;9.20;5.13;;;;;;;20.32;71.39;101895.38;5051031;28;20063;-81
2022/06/05 07:28:38;;;;;;;10.45;5.28;;;;;;;20.74;74.55;101885.75;5054044;28;20071;-81
2022/06/05 07:31:06;;;;;;;8.80;4.47;;;;;;;21.12;68.95;101870.97;5052338;28;20057;-81
2022/06/05 07:33:33;;;;;;;10.65;5.88;;;;;;;21.33;69.37;101896.22;5051212;28;20056;-82
2022/06/05 07:36:03;;;;;;;9.35;4.55;;;;;;;19.43;74.47;101890.78;5051246;28;20052;-81
2022/06/05 07:38:32;;;;;;;11.50;6.00;;;;;;;20.16;69.61;101884.81;5049615;28;20462;-80
2022/06/05 07:40:59;;;;;;;12.75;6.40;;;;;;;19.65;71.81;101895.72;5050516;28;20049;-81
2022/06/05 07:43:26;;;;;;;11.60;6.88;;;;;;;19.66;70.39;101888.63;5050742;28;20052;-81
2022/06/05 07:45:53;;;;;;;8.30;3.42;;;;;;;21.04;68.94;101887.44;5050022;28;20049;-81
2022/06/05 07:48:20;;;;;;;7.65;3.60;;;;;;;20.52;68.96;101888.84;5050243;28;20052;-81
2022/06/05 07:56:39;;;;;;;10.50;5.63;;;;;;;20.15;68.97;101876.94;5028789;28;20471;-81
2022/06/05 07:59:07;;;;;;;8.85;4.13;;;;;;;21.43;65.05;101876.00;5012825;28;20058;-79
2022/06/05 08:01:58;;;;;;;9.63;4.18;;;;;;;20.61;65.49;101882.09;5025507;28;20080;-79
2022/06/05 08:04:26;;;;;;;10.15;5.40;;;;;;;20.23;68.36;101883.50;5050305;28;20122;-79
2022/06/05 08:06:58;;;;;;;8.85;4.22;;;;;;;20.66;64.44;101874.72;5050280;28;20128;-81
2022/06/05 08:09:26;;;;;;;10.13;5.38;;;;;;;19.41;68.66;101882.06;5050635;28;20045;-79
2022/06/05 08:11:53;;;;;;;10.25;4.60;;;;;;;19.97;68.43;101886.84;5049776;28;20095;-79
2022/06/05 08:14:20;;;;;;;14.25;6.45;;;;;;;19.48;74.15;101887.88;5051452;28;20139;-79
2022/06/05 08:16:47;;;;;;;11.60;6.13;;;;;;;20.30;70.24;101891.97;5051317;28;20053;-79
2022/06/05 08:19:19;;;;;;;10.77;5.90;;;;;;;20.63;69.47;101891.75;5038503;28;20424;-79
2022/06/05 08:21:47;;;;;;;11.05;5.85;;;;;;;20.46;67.79;101881.25;5050397;28;20590;-79
2022/06/05 08:24:14;;;;;;;11.73;6.10;;;;;;;19.42;73.40;101870.47;5050327;28;20048;-79
2022/06/05 08:26:41;;;;;;;10.60;6.32;;;;;;;20.14;71.71;101870.75;5050058;28;20056;-79
2022/06/05 08:29:08;;;;;;;9.02;4.70;;;;;;;19.58;71.86;101840.38;5050322;28;20048;-79
2022/06/05 08:31:35;;;;;;;11.55;6.13;;;;;;;19.87;73.71;101881.25;5050387;28;20151;-81
2022/06/05 08:34:03;;;;;;;9.77;4.55;;;;;;;20.75;70.13;101870.63;5049874;28;20136;-80
2022/06/05 08:36:31;;;;;;;13.90;7.47;;;;;;;19.80;71.35;101871.94;5049607;28;20049;-80
2022/06/05 08:42:15;;;;;;;12.88;6.80;;;;;;;19.72;72.83;101882.94;5051334;28;20410;-80
2022/06/05 08:44:53;;;;;;;11.65;6.43;;;;;;;19.90;73.35;101868.63;5039373;28;20048;-80
2022/06/05 08:47:34;;;;;;;11.45;6.18;;;;;;;20.11;71.67;101878.91;5050684;28;20051;-80
2022/06/05 08:50:19;;;;;;;10.82;5.80;;;;;;;19.25;75.02;101894.50;5050327;28;20041;-80
2022/06/05 08:53:03;;;;;;;13.20;7.53;;;;;;;19.95;72.18;101886.94;5050259;28;20414;-81
2022/06/05 08:55:37;;;;;;;12.85;7.38;;;;;;;19.37;76.61;101879.66;5050504;28;20459;-80
2022/06/05 08:58:52;;;;;;;12.65;6.75;;;;;;;19.31;77.09;101892.34;5050165;28;20045;-80
2022/06/05 09:01:41;;;;;;;11.95;6.45;;;;;;;19.18;77.17;101878.03;5043048;28;20049;-79
2022/06/05 09:04:10;;;;;;;13.60;8.05;;;;;;;19.68;76.41;101871.63;5053802;28;20052;-80
2022/06/05 09:06:46;;;;;;;12.60;7.22;;;;;;;19.66;73.35;101865.56;5053732;28;20053;-80
2022/06/05 09:09:22;;;;;;;12.85;7.45;;;;;;;19.21;75.79;101864.59;5053304;28;20487;-80
2022/06/05 09:11:58;;;;;;;12.52;6.97;;;;;;;19.35;77.06;101870.00;5053731;28;20041;-80
2022/06/05 09:14:48;;;;;;;9.73;4.95;;;;;;;19.86;74.02;101874.22;5053756;28;20546;-80
2022/06/05 09:17:19;;;;;;;15.52;8.27;;;;;;;19.47;75.79;101868.41;5060479;28;20049;-80
2022/06/05 09:19:49;;;;;;;14.82;8.82;;;;;;;19.13;76.04;101849.09;5053664;28;20418;-80
2022/06/05 09:22:18;;;;;;;15.40;7.82;;;;;;;18.99;79.04;101877.34;5044054;28;20052;-80
2022/06/05 09:24:48;;;;;;;11.43;5.97;;;;;;;19.19;78.60;101879.75;5049864;28;20154;-80
2022/06/05 09:27:24;;;;;;;19.77;11.32;;;;;;;18.16;81.26;101875.47;5055186;28;20056;-81
2022/06/05 09:30:27;;;;;;;12.13;7.35;;;;;;;19.40;77.11;101868.88;5053429;28;20041;-80
2022/06/05 09:32:54;;;;;;;16.38;7.72;;;;;;;18.89;78.55;101867.25;5050686;28;20055;-80
2022/06/05 09:35:27;;;;;;;14.20;9.13;;;;;;;18.95;77.94;101858.94;5053769;28;20049;-80
2022/06/05 09:38:06;;;;;;;13.93;6.22;;;;;;;18.94;77.61;101865.16;5053641;28;20053;-80
2022/06/05 09:40:45;;;;;;;16.50;8.77;;;;;;;18.85;79.53;101852.41;5041491;28;20052;-80
2022/06/05 09:43:27;;;;;;;12.52;6.53;;;;;;;18.79;79.44;101855.38;5053994;28;20627;-79
2022/06/05 09:46:08;;;;;;;10.93;6.32;;;;;;;18.80;78.17;101857.09;5053626;28;20122;-80
2022/06/05 09:48:48;;;;;;;11.80;6.28;;;;;;;19.34;75.21;101838.22;5053087;28;20102;-80
2022/06/05 09:51:18;;;;;;;9.95;4.53;;;;;;;19.60;77.86;101833.19;5053658;28;20041;-80
2022/06/05 09:54:21;;;;;;;10.38;5.32;;;;;;;19.78;72.98;101841.91;5054555;28;20056;-80
2022/06/05 09:59:55;;;;;;;9.80;4.15;;;;;;;19.70;71.75;101835.22;5041626;28;20372;-79
2022/06/05 10:02:29;;;;;;;9.20;4.03;;;;;;;19.69;71.35;101822.03;5053419;28;20136;-80
2022/06/05 10:04:56;;;;;;;9.15;4.13;;;;;;;19.52;72.74;101839.78;5053014;28;20079;-80
2022/06/05 10:07:39;;;;;;;7.85;3.42;;;;;;;20.19;70.15;101839.44;5053277;28;20446;-80
2022/06/05 10:10:17;;;;;;;9.25;3.58;;;;;;;19.83;72.22;101832.75;5052602;28;20057;-80
2022/06/05 10:12:53;;;;;;;8.98;4.15;;;;;;;19.04;74.60;101839.00;5054063;28;20053;-79
2022/06/05 10:15:31;;;;;;;9.07;4.13;;;;;;;19.04;75.20;101832.84;5053843;28;20056;-79
2022/06/05 10:18:04;;;;;;;10.40;3.35;;;;;;;19.67;71.36;101834.53;5052119;28;20049;-80
2022/06/05 10:20:50;;;;;;;7.78;3.08;;;;;;;19.52;71.56;101839.78;5052444;28;20049;-80
2022/06/05 10:23:32;;;;;;;9.90;3.60;;;;;;;19.42;72.63;101840.41;5052472;28;20506;-80
2022/06/05 10:26:24;;;;;;;7.43;2.63;;;;;;;19.65;71.76;101828.47;5052372;28;20049;-80
2022/06/05 10:28:53;;;;;;;6.50;3.03;;;;;;;19.90;72.38;101814.59;5051849;28;20152;-79
2022/06/05 10:31:20;;;;;;;8.02;3.35;;;;;;;18.68;77.28;101833.88;5052040;28;20049;-80
2022/06/05 10:33:53;;;;;;;8.52;3.40;;;;;;;19.56;74.00;101816.56;5052639;28;20048;-80
2022/06/05 10:36:43;;;;;;;8.48;2.85;;;;;;;19.56;73.69;101813.91;5052493;28;20049;-80
2022/06/05 10:39:16;;;;;;;7.45;3.08;;;;;;;19.75;71.19;101803.09;5037678;28;20055;-79
2022/06/05 10:41:52;;;;;;;7.20;2.40;;;;;;;19.69;69.04;101822.03;5052038;28;20049;-79
2022/06/05 10:44:40;;;;;;;7.45;2.80;;;;;;;19.28;73.47;101806.69;5072805;28;20080;-79
2022/06/05 10:47:31;;;;;;;6.97;2.83;;;;;;;19.81;69.72;101816.00;5054579;28;20057;-80
2022/06/05 10:50:10;;;;;;;6.70;3.10;;;;;;;18.85;72.62;101811.78;5052461;28;20057;-80
2022/06/05 10:53:27;;;;;;;7.28;3.08;;;;;;;19.24;72.44;101811.31;5047982;28;20053;-80
2022/06/05 10:56:07;;;;;;;6.93;2.60;;;;;;;19.51;71.32;101806.22;5012888;28;20058;-80
2022/06/05 10:58:40;;;;;;;6.20;2.63;;;;;;;19.52;70.30;101815.88;5031168;28;20053;-80
2022/06/05 11:01:30;;;;;;;7.97;2.83;;;;;;;19.61;69.05;101811.00;5046461;28;20406;-80
2022/06/05 11:04:26;;;;;;;8.30;2.70;;;;;;;19.00;72.62;101820.66;5052180;28;20044;-80
2022/06/05 11:07:16;;;;;;;7.80;2.50;;;;;;;19.56;71.89;101810.41;5033115;28;20503;-80
2022/06/05 11:09:57;;;;;;;7.55;3.22;;;;;;;18.58;74.46;101825.56;5041380;28;20479;-80
2022/06/05 11:15:44;;;;;;;6.90;2.63;;;;;;;19.32;71.25;101814.41;5052631;28;20435;-79
2022/06/05 11:18:38;;;;;;;6.43;2.17;;;;;;;18.90;71.68;101817.69;5050957;28;20099;-81
2022/06/05 11:21:07;;;;;;;5.40;1.77;;;;;;;18.97;72.06;101825.19;5052812;28;20127;-81
2022/06/05 11:23:38;;;;;;;4.43;1.88;;;;;;;19.47;67.59;101806.47;5050658;28;20055;-81
2022/06/05 11:26:22;;;;;;;5.07;1.95;;;;;;;19.80;69.37;101808.16;5051535;28;20123;-81
2022/06/05 11:29:01;;;;;;;6.07;1.90;;;;;;;19.28;70.69;101804.91;5051703;28;20059;-81
2022/06/05 11:31:30;;;;;;;7.25;1.98;;;;;;;19.20;69.79;101801.81;5051407;28;20408;-81
2022/06/05 11:34:16;;;;;;;5.97;2.00;;;;;;;19.32;69.85;101803.78;5050829;28;20128;-79
2022/06/05 11:36:50;;;;;;;5.90;2.00;;;;;;;19.00;71.25;101791.47;5052197;28;20049;-81
2022/06/05 11:39:34;;;;;;;10.80;2.47;;;;;;;19.31;70.93;101807.38;5043174;28;20558;-81
2022/06/05 11:42:16;;;;;;;8.27;2.05;;;;;;;19.63;71.77;101809.09;5052349;28;20129;-82
2022/06/05 11:44:55;;;;;;;6.05;2.22;;;;;;;19.07;73.91;101811.41;5050800;28;20057;-81
2022/06/05 11:47:35;;;;;;;5.47;1.88;;;;;;;19.91;68.51;101800.38;5051701;28;20056;-82
2022/06/05 11:50:30;;;;;;;8.05;2.28;;;;;;;19.89;70.05;101797.81;5052866;28;20052;-81
2022/06/05 11:53:14;;;;;;;5.18;1.80;;;;;;;19.94;69.65;101778.94;5051570;28;20055;-81
2022/06/05 11:55:53;;;;;;;7.68;2.30;;;;;;;19.43;70.69;101758.00;5051045;28;20594;-79
2022/06/05 11:58:37;;;;;;;6.10;1.95;;;;;;;19.90;67.04;101788.03;5051171;28;20465;-79
2022/06/05 12:01:14;;;;;;;6.28;2.35;;;;;;;20.01;69.06;101776.75;5050712;28;20106;-79
2022/06/05 12:03:59;;;;;;;7.30;2.10;;;;;;;20.26;68.96;101782.28;5050552;28;20088;-79
2022/06/05 12:06:39;;;;;;;5.72;1.98;;;;;;;19.25;71.93;101799.75;5050775;28;20128;-80
2022/06/05 12:09:22;;;;;;;4.35;1.75;;;;;;;19.87;69.58;101786.41;5050988;28;20049;-80
2022/06/05 12:12:07;;;;;;;4.30;1.80;;;;;;;19.85;69.28;101771.53;5038759;28;20612;-80
2022/06/05 12:14:54;;;;;;;6.72;1.85;;;;;;;20.02;67.98;101784.63;5050655;28;20056;-80
2022/06/05 12:17:32;;;;;;;4.28;1.80;;;;;;;19.64;71.37;101786.91;5047815;28;20573;-80
2022/06/05 12:20:06;;;;;;;5.75;1.98;;;;;;;19.97;70.90;101778.72;5050279;28;20479;-81
2022/06/05 12:22:55;;;;;;;7.57;2.30;;;;;;;19.76;70.61;101785.34;5051828;28;20051;-80
2022/06/05 12:25:54;;;;;;;6.43;1.98;;;;;;;19.68;71.66;101785.78;5050417;28;20076;-81